N1496D KOWB-KGZS
Flight info
| Callsign | N1496D |
|---|---|
| Flight time | 1h 11m |
| Altitude | 6500 |
| Route | VFR S |
| Aircraft | GABR/L-VGD/C |
Departure
| Time | 2026-05-08 02:52 |
|---|---|
| Airport | Owensboro Daviess County Airport (KOWB) |
Arrival
| Time | 2026-05-08 04:03 |
|---|---|
| Airport | Abernathy Field (KGZS) |
| Time | Latitude | Longitude | Altitude | Speed | Heading |
|---|---|---|---|---|---|
| 2026-05-08 02:39 | 37.74572 | -87.16336 | 407 ft | 0 kts | 201° |
| 2026-05-08 02:49 | 37.74560 | -87.16363 | 407 ft | 8 kts | 225° |
| 2026-05-08 02:49 | 37.74501 | -87.16432 | 407 ft | 15 kts | 239° |
| 2026-05-08 02:49 | 37.74567 | -87.16508 | 407 ft | 19 kts | 353° |
| 2026-05-08 02:50 | 37.74704 | -87.16514 | 408 ft | 21 kts | 360° |
| 2026-05-08 02:50 | 37.74851 | -87.16522 | 409 ft | 21 kts | 347° |
| 2026-05-08 02:50 | 37.74886 | -87.16642 | 409 ft | 17 kts | 267° |
| 2026-05-08 02:50 | 37.74885 | -87.16661 | 409 ft | 0 kts | 270° |
| 2026-05-08 02:51 | 37.74875 | -87.16767 | 409 ft | 16 kts | 224° |
| 2026-05-08 02:51 | 37.74808 | -87.16776 | 408 ft | 0 kts | 178° |
| 2026-05-08 02:51 | 37.74602 | -87.16765 | 416 ft | 72 kts | 177° |
| 2026-05-08 02:52 | 37.73986 | -87.16722 | 620 ft | 99 kts | 178° |
| 2026-05-08 02:52 | 37.73249 | -87.16675 | 864 ft | 113 kts | 178° |
| 2026-05-08 02:52 | 37.72440 | -87.16627 | 1124 ft | 121 kts | 176° |
| 2026-05-08 02:52 | 37.71607 | -87.16464 | 1451 ft | 122 kts | 169° |
| 2026-05-08 02:53 | 37.70755 | -87.16293 | 1716 ft | 125 kts | 177° |
| 2026-05-08 02:53 | 37.69881 | -87.16214 | 1982 ft | 127 kts | 177° |
| 2026-05-08 02:53 | 37.68980 | -87.16114 | 2239 ft | 131 kts | 176° |
| 2026-05-08 02:53 | 37.68079 | -87.16002 | 2514 ft | 132 kts | 176° |
| 2026-05-08 02:54 | 37.67156 | -87.15897 | 2597 ft | 131 kts | 177° |
| 2026-05-08 02:54 | 37.66302 | -87.15806 | 2861 ft | 119 kts | 178° |
| 2026-05-08 02:54 | 37.65432 | -87.15712 | 3167 ft | 133 kts | 177° |
| 2026-05-08 02:54 | 37.64532 | -87.15602 | 3462 ft | 126 kts | 177° |
| 2026-05-08 02:55 | 37.63670 | -87.15499 | 3754 ft | 122 kts | 178° |
| 2026-05-08 02:55 | 37.62012 | -87.15311 | 4350 ft | 118 kts | 179° |
| 2026-05-08 02:55 | 37.61197 | -87.15216 | 4658 ft | 117 kts | 179° |
| 2026-05-08 02:56 | 37.60660 | -87.15154 | 4854 ft | 117 kts | 180° |
| 2026-05-08 02:56 | 37.59822 | -87.15051 | 5174 ft | 127 kts | 180° |
| 2026-05-08 02:56 | 37.58628 | -87.14921 | 5565 ft | 128 kts | 180° |
| 2026-05-08 02:56 | 37.57749 | -87.14817 | 5867 ft | 125 kts | 180° |
| 2026-05-08 02:57 | 37.57175 | -87.14751 | 6084 ft | 126 kts | 181° |
| 2026-05-08 02:57 | 37.56275 | -87.14647 | 6380 ft | 130 kts | 181° |
| 2026-05-08 02:57 | 37.55339 | -87.14542 | 6507 ft | 144 kts | 181° |
| 2026-05-08 02:57 | 37.54274 | -87.14418 | 6495 ft | 159 kts | 179° |
| 2026-05-08 02:58 | 37.53196 | -87.14282 | 6501 ft | 154 kts | 180° |
| 2026-05-08 02:58 | 37.52145 | -87.14158 | 6496 ft | 150 kts | 180° |
| 2026-05-08 02:58 | 37.51116 | -87.14044 | 6503 ft | 148 kts | 180° |
| 2026-05-08 02:58 | 37.50103 | -87.13928 | 6506 ft | 147 kts | 180° |
| 2026-05-08 02:59 | 37.49076 | -87.13810 | 6495 ft | 147 kts | 180° |
| 2026-05-08 02:59 | 37.48059 | -87.13716 | 6483 ft | 146 kts | 183° |
| 2026-05-08 02:59 | 37.47056 | -87.13630 | 6496 ft | 146 kts | 181° |
| 2026-05-08 02:59 | 37.46040 | -87.13533 | 6497 ft | 146 kts | 181° |
| 2026-05-08 03:00 | 37.45023 | -87.13441 | 6506 ft | 148 kts | 181° |
| 2026-05-08 03:00 | 37.43990 | -87.13349 | 6496 ft | 148 kts | 181° |
| 2026-05-08 03:00 | 37.42982 | -87.13262 | 6493 ft | 146 kts | 181° |
| 2026-05-08 03:00 | 37.41967 | -87.13174 | 6482 ft | 146 kts | 181° |
| 2026-05-08 03:01 | 37.40953 | -87.13086 | 6491 ft | 146 kts | 181° |
| 2026-05-08 03:01 | 37.39938 | -87.12992 | 6486 ft | 146 kts | 181° |
| 2026-05-08 03:01 | 37.38924 | -87.12907 | 6488 ft | 146 kts | 181° |
| 2026-05-08 03:01 | 37.37919 | -87.12825 | 6498 ft | 147 kts | 181° |
| 2026-05-08 03:02 | 37.36888 | -87.12735 | 6487 ft | 148 kts | 181° |
| 2026-05-08 03:02 | 37.35861 | -87.12642 | 6483 ft | 147 kts | 181° |
| 2026-05-08 03:02 | 37.34833 | -87.12552 | 6497 ft | 148 kts | 181° |
| 2026-05-08 03:02 | 37.33793 | -87.12463 | 6503 ft | 150 kts | 180° |
| 2026-05-08 03:03 | 37.32747 | -87.12368 | 6497 ft | 151 kts | 181° |
| 2026-05-08 03:03 | 37.31710 | -87.12279 | 6494 ft | 148 kts | 181° |
| 2026-05-08 03:03 | 37.30698 | -87.12192 | 6493 ft | 147 kts | 181° |
| 2026-05-08 03:03 | 37.29680 | -87.12076 | 6504 ft | 148 kts | 173° |
| 2026-05-08 03:04 | 37.28744 | -87.11526 | 6506 ft | 151 kts | 152° |
| 2026-05-08 03:04 | 37.27826 | -87.10872 | 6514 ft | 154 kts | 154° |
| 2026-05-08 03:04 | 37.26891 | -87.10224 | 6512 ft | 153 kts | 152° |
| 2026-05-08 03:04 | 37.25960 | -87.09570 | 6505 ft | 152 kts | 153° |
| 2026-05-08 03:05 | 37.25039 | -87.08924 | 6508 ft | 152 kts | 153° |
| 2026-05-08 03:05 | 37.24115 | -87.08277 | 6507 ft | 151 kts | 153° |
| 2026-05-08 03:05 | 37.23208 | -87.07642 | 6509 ft | 150 kts | 153° |
| 2026-05-08 03:05 | 37.22294 | -87.07004 | 6506 ft | 150 kts | 153° |
| 2026-05-08 03:06 | 37.21382 | -87.06364 | 6504 ft | 150 kts | 153° |
| 2026-05-08 03:06 | 37.20472 | -87.05728 | 6508 ft | 150 kts | 153° |
| 2026-05-08 03:06 | 37.19564 | -87.05093 | 6503 ft | 149 kts | 153° |
| 2026-05-08 03:06 | 37.18655 | -87.04457 | 6505 ft | 149 kts | 153° |
| 2026-05-08 03:07 | 37.17748 | -87.03822 | 6501 ft | 149 kts | 153° |
| 2026-05-08 03:07 | 37.16842 | -87.03189 | 6500 ft | 149 kts | 153° |
| 2026-05-08 03:07 | 37.15941 | -87.02561 | 6506 ft | 149 kts | 153° |
| 2026-05-08 03:07 | 37.14983 | -87.02067 | 6504 ft | 148 kts | 163° |
| 2026-05-08 03:08 | 37.14024 | -87.01622 | 6506 ft | 148 kts | 162° |
| 2026-05-08 03:08 | 37.13049 | -87.01166 | 6504 ft | 148 kts | 162° |
| 2026-05-08 03:08 | 37.12092 | -87.00716 | 6513 ft | 148 kts | 162° |
| 2026-05-08 03:08 | 37.11106 | -87.00254 | 6512 ft | 152 kts | 162° |
| 2026-05-08 03:09 | 37.10118 | -86.99788 | 6510 ft | 150 kts | 161° |
| 2026-05-08 03:09 | 37.09138 | -86.99326 | 6513 ft | 149 kts | 162° |
| 2026-05-08 03:09 | 37.08176 | -86.98875 | 6510 ft | 150 kts | 162° |
| 2026-05-08 03:09 | 37.07195 | -86.98412 | 6507 ft | 150 kts | 162° |
| 2026-05-08 03:10 | 37.06218 | -86.97955 | 6510 ft | 149 kts | 161° |
| 2026-05-08 03:10 | 37.05261 | -86.97507 | 6508 ft | 148 kts | 161° |
| 2026-05-08 03:10 | 37.04299 | -86.97054 | 6505 ft | 148 kts | 161° |
| 2026-05-08 03:10 | 37.03334 | -86.96602 | 6506 ft | 149 kts | 161° |
| 2026-05-08 03:11 | 37.02357 | -86.96144 | 6506 ft | 149 kts | 161° |
| 2026-05-08 03:11 | 37.01399 | -86.95696 | 6502 ft | 148 kts | 161° |
| 2026-05-08 03:11 | 37.00430 | -86.95241 | 6507 ft | 148 kts | 161° |
| 2026-05-08 03:11 | 36.99471 | -86.94793 | 6504 ft | 148 kts | 161° |
| 2026-05-08 03:12 | 36.98500 | -86.94370 | 6505 ft | 147 kts | 168° |
| 2026-05-08 03:12 | 36.97503 | -86.94083 | 6506 ft | 147 kts | 169° |
| 2026-05-08 03:12 | 36.96520 | -86.93789 | 6504 ft | 146 kts | 169° |
| 2026-05-08 03:12 | 36.95517 | -86.93485 | 6501 ft | 147 kts | 169° |
| 2026-05-08 03:13 | 36.94528 | -86.93191 | 6504 ft | 147 kts | 169° |
| 2026-05-08 03:13 | 36.93514 | -86.92885 | 6501 ft | 150 kts | 168° |
| 2026-05-08 03:13 | 36.92493 | -86.92577 | 6506 ft | 151 kts | 169° |
| 2026-05-08 03:13 | 36.91478 | -86.92281 | 6505 ft | 149 kts | 169° |
| 2026-05-08 03:14 | 36.90477 | -86.91982 | 6505 ft | 148 kts | 168° |
| 2026-05-08 03:14 | 36.89471 | -86.91686 | 6510 ft | 150 kts | 169° |
| 2026-05-08 03:14 | 36.88457 | -86.91380 | 6507 ft | 149 kts | 168° |
| 2026-05-08 03:14 | 36.87456 | -86.91080 | 6506 ft | 147 kts | 168° |
| 2026-05-08 03:15 | 36.86461 | -86.90783 | 6501 ft | 147 kts | 168° |
| 2026-05-08 03:15 | 36.85458 | -86.90488 | 6507 ft | 150 kts | 169° |
| 2026-05-08 03:15 | 36.84438 | -86.90179 | 6514 ft | 152 kts | 169° |
| 2026-05-08 03:15 | 36.83400 | -86.89938 | 6506 ft | 151 kts | 171° |
| 2026-05-08 03:16 | 36.82381 | -86.89687 | 6507 ft | 148 kts | 171° |
| 2026-05-08 03:16 | 36.81373 | -86.89441 | 6508 ft | 148 kts | 171° |
| 2026-05-08 03:16 | 36.80349 | -86.89201 | 6510 ft | 151 kts | 171° |
| 2026-05-08 03:16 | 36.79333 | -86.88962 | 6499 ft | 151 kts | 171° |
| 2026-05-08 03:17 | 36.78296 | -86.88713 | 6482 ft | 150 kts | 171° |
| 2026-05-08 03:17 | 36.77265 | -86.88468 | 6474 ft | 150 kts | 171° |
| 2026-05-08 03:17 | 36.76238 | -86.88226 | 6471 ft | 152 kts | 171° |
| 2026-05-08 03:17 | 36.75202 | -86.87978 | 6473 ft | 152 kts | 171° |
| 2026-05-08 03:18 | 36.74167 | -86.87734 | 6469 ft | 151 kts | 171° |
| 2026-05-08 03:18 | 36.73137 | -86.87495 | 6467 ft | 149 kts | 171° |
| 2026-05-08 03:18 | 36.72114 | -86.87252 | 6476 ft | 151 kts | 171° |
| 2026-05-08 03:18 | 36.71080 | -86.87010 | 6468 ft | 151 kts | 171° |
| 2026-05-08 03:19 | 36.70057 | -86.86771 | 6464 ft | 148 kts | 171° |
| 2026-05-08 03:19 | 36.69047 | -86.86533 | 6468 ft | 147 kts | 171° |
| 2026-05-08 03:19 | 36.68042 | -86.86296 | 6469 ft | 147 kts | 170° |
| 2026-05-08 03:19 | 36.67027 | -86.86059 | 6474 ft | 153 kts | 173° |
| 2026-05-08 03:20 | 36.65957 | -86.86132 | 6471 ft | 153 kts | 192° |
| 2026-05-08 03:20 | 36.64916 | -86.86316 | 6472 ft | 150 kts | 190° |
| 2026-05-08 03:20 | 36.63888 | -86.86488 | 6471 ft | 148 kts | 191° |
| 2026-05-08 03:20 | 36.62860 | -86.86657 | 6477 ft | 151 kts | 190° |
| 2026-05-08 03:21 | 36.61822 | -86.86828 | 6475 ft | 153 kts | 190° |
| 2026-05-08 03:21 | 36.60764 | -86.87006 | 6481 ft | 151 kts | 191° |
| 2026-05-08 03:21 | 36.59725 | -86.87181 | 6480 ft | 153 kts | 191° |
| 2026-05-08 03:21 | 36.58665 | -86.87359 | 6482 ft | 154 kts | 191° |
| 2026-05-08 03:22 | 36.57603 | -86.87527 | 6483 ft | 153 kts | 190° |
| 2026-05-08 03:22 | 36.56545 | -86.87701 | 6474 ft | 153 kts | 191° |
| 2026-05-08 03:22 | 36.55497 | -86.87873 | 6469 ft | 149 kts | 191° |
| 2026-05-08 03:22 | 36.54471 | -86.88045 | 6469 ft | 147 kts | 191° |
| 2026-05-08 03:23 | 36.53455 | -86.88213 | 6468 ft | 148 kts | 190° |
| 2026-05-08 03:23 | 36.52427 | -86.88380 | 6469 ft | 150 kts | 191° |
| 2026-05-08 03:23 | 36.51415 | -86.88609 | 6464 ft | 148 kts | 204° |
| 2026-05-08 03:23 | 36.50602 | -86.89318 | 6470 ft | 140 kts | 232° |
| 2026-05-08 03:24 | 36.49942 | -86.90228 | 6480 ft | 144 kts | 231° |
| 2026-05-08 03:24 | 36.49255 | -86.91132 | 6469 ft | 143 kts | 232° |
| 2026-05-08 03:24 | 36.48575 | -86.92038 | 6472 ft | 144 kts | 232° |
| 2026-05-08 03:24 | 36.47906 | -86.92934 | 6470 ft | 142 kts | 232° |
| 2026-05-08 03:25 | 36.47225 | -86.93831 | 6473 ft | 143 kts | 231° |
| 2026-05-08 03:25 | 36.46547 | -86.94720 | 6472 ft | 141 kts | 232° |
| 2026-05-08 03:25 | 36.45887 | -86.95615 | 6476 ft | 140 kts | 232° |
| 2026-05-08 03:25 | 36.45210 | -86.96507 | 6476 ft | 142 kts | 231° |
| 2026-05-08 03:26 | 36.44537 | -86.97408 | 6467 ft | 141 kts | 231° |
| 2026-05-08 03:26 | 36.43876 | -86.98287 | 6467 ft | 139 kts | 231° |
| 2026-05-08 03:26 | 36.43215 | -86.99167 | 6463 ft | 139 kts | 232° |
| 2026-05-08 03:26 | 36.42558 | -87.00041 | 6472 ft | 138 kts | 231° |
| 2026-05-08 03:27 | 36.41896 | -87.00929 | 6477 ft | 141 kts | 232° |
| 2026-05-08 03:27 | 36.41226 | -87.01815 | 6486 ft | 143 kts | 231° |
| 2026-05-08 03:27 | 36.40537 | -87.02728 | 6486 ft | 145 kts | 231° |
| 2026-05-08 03:27 | 36.39857 | -87.03631 | 6480 ft | 145 kts | 231° |
| 2026-05-08 03:28 | 36.39098 | -87.04432 | 6474 ft | 145 kts | 211° |
| 2026-05-08 03:28 | 36.38121 | -87.04744 | 6471 ft | 146 kts | 190° |
| 2026-05-08 03:28 | 36.37115 | -87.04924 | 6483 ft | 147 kts | 191° |
| 2026-05-08 03:28 | 36.36094 | -87.05115 | 6478 ft | 150 kts | 192° |
| 2026-05-08 03:29 | 36.35067 | -87.05312 | 6480 ft | 149 kts | 191° |
| 2026-05-08 03:29 | 36.34049 | -87.05496 | 6477 ft | 146 kts | 191° |
| 2026-05-08 03:29 | 36.33049 | -87.05683 | 6474 ft | 145 kts | 191° |
| 2026-05-08 03:29 | 36.32054 | -87.05869 | 6468 ft | 144 kts | 191° |
| 2026-05-08 03:30 | 36.30087 | -87.06235 | 6474 ft | 143 kts | 191° |
| 2026-05-08 03:30 | 36.28103 | -87.06252 | 6475 ft | 146 kts | 156° |
| 2026-05-08 03:31 | 36.26533 | -87.04700 | 6473 ft | 145 kts | 139° |
| 2026-05-08 03:31 | 36.25000 | -87.03071 | 6471 ft | 145 kts | 139° |
| 2026-05-08 03:32 | 36.24228 | -87.02252 | 6476 ft | 147 kts | 139° |
| 2026-05-08 03:32 | 36.23449 | -87.01425 | 6478 ft | 147 kts | 139° |
| 2026-05-08 03:32 | 36.22671 | -87.00597 | 6484 ft | 149 kts | 138° |
| 2026-05-08 03:32 | 36.21889 | -86.99763 | 6478 ft | 148 kts | 139° |
| 2026-05-08 03:33 | 36.21110 | -86.98941 | 6480 ft | 146 kts | 139° |
| 2026-05-08 03:33 | 36.20338 | -86.98124 | 6480 ft | 146 kts | 139° |
| 2026-05-08 03:33 | 36.19561 | -86.97301 | 6487 ft | 149 kts | 139° |
| 2026-05-08 03:33 | 36.18777 | -86.96469 | 6479 ft | 148 kts | 139° |
| 2026-05-08 03:34 | 36.18000 | -86.95646 | 6483 ft | 147 kts | 139° |
| 2026-05-08 03:34 | 36.17221 | -86.94823 | 6483 ft | 148 kts | 139° |
| 2026-05-08 03:34 | 36.16441 | -86.93996 | 6485 ft | 147 kts | 140° |
| 2026-05-08 03:34 | 36.15647 | -86.93153 | 6490 ft | 153 kts | 139° |
| 2026-05-08 03:35 | 36.14838 | -86.92291 | 6480 ft | 152 kts | 139° |
| 2026-05-08 03:35 | 36.14048 | -86.91455 | 6480 ft | 148 kts | 140° |
| 2026-05-08 03:35 | 36.13145 | -86.90873 | 6477 ft | 148 kts | 171° |
| 2026-05-08 03:35 | 36.12133 | -86.90695 | 6483 ft | 151 kts | 173° |
| 2026-05-08 03:36 | 36.11102 | -86.90482 | 6481 ft | 150 kts | 172° |
| 2026-05-08 03:36 | 36.10088 | -86.90273 | 6476 ft | 145 kts | 173° |
| 2026-05-08 03:36 | 36.09099 | -86.90074 | 6473 ft | 143 kts | 173° |
| 2026-05-08 03:36 | 36.08116 | -86.89877 | 6481 ft | 145 kts | 173° |
| 2026-05-08 03:37 | 36.07108 | -86.89670 | 6474 ft | 147 kts | 173° |
| 2026-05-08 03:37 | 36.06111 | -86.89474 | 6471 ft | 144 kts | 173° |
| 2026-05-08 03:37 | 36.05105 | -86.89280 | 6487 ft | 153 kts | 173° |
| 2026-05-08 03:37 | 36.04038 | -86.89060 | 6486 ft | 157 kts | 172° |
| 2026-05-08 03:38 | 36.02985 | -86.88840 | 6472 ft | 150 kts | 173° |
| 2026-05-08 03:38 | 36.01966 | -86.88645 | 6465 ft | 146 kts | 173° |
| 2026-05-08 03:38 | 36.00982 | -86.88457 | 6489 ft | 145 kts | 175° |
| 2026-05-08 03:38 | 35.99933 | -86.88363 | 6472 ft | 152 kts | 177° |
| 2026-05-08 03:39 | 35.98875 | -86.88242 | 6468 ft | 151 kts | 177° |
| 2026-05-08 03:39 | 35.97838 | -86.88160 | 6479 ft | 150 kts | 179° |
| 2026-05-08 03:39 | 35.96802 | -86.88077 | 6472 ft | 148 kts | 178° |
| 2026-05-08 03:39 | 35.95788 | -86.87986 | 6471 ft | 144 kts | 178° |
| 2026-05-08 03:40 | 35.94801 | -86.87888 | 6470 ft | 144 kts | 177° |
| 2026-05-08 03:40 | 35.93793 | -86.87799 | 6475 ft | 148 kts | 179° |
| 2026-05-08 03:40 | 35.92761 | -86.87737 | 6489 ft | 149 kts | 187° |
| 2026-05-08 03:40 | 35.91815 | -86.88175 | 6481 ft | 142 kts | 218° |
| 2026-05-08 03:41 | 35.91046 | -86.88928 | 6482 ft | 144 kts | 220° |
| 2026-05-08 03:41 | 35.90248 | -86.89674 | 6479 ft | 144 kts | 219° |
| 2026-05-08 03:41 | 35.89472 | -86.90423 | 6469 ft | 139 kts | 222° |
| 2026-05-08 03:41 | 35.88720 | -86.91178 | 6474 ft | 140 kts | 222° |
| 2026-05-08 03:42 | 35.87973 | -86.91932 | 6469 ft | 137 kts | 222° |
| 2026-05-08 03:42 | 35.87223 | -86.92669 | 6481 ft | 142 kts | 221° |
| 2026-05-08 03:42 | 35.86446 | -86.93450 | 6481 ft | 144 kts | 222° |
| 2026-05-08 03:42 | 35.85649 | -86.94210 | 6473 ft | 144 kts | 220° |
| 2026-05-08 03:43 | 35.84875 | -86.94938 | 6473 ft | 141 kts | 220° |
| 2026-05-08 03:43 | 35.84106 | -86.95700 | 6469 ft | 142 kts | 222° |
| 2026-05-08 03:43 | 35.83337 | -86.96452 | 6477 ft | 140 kts | 221° |
| 2026-05-08 03:43 | 35.82549 | -86.97221 | 6480 ft | 148 kts | 221° |
| 2026-05-08 03:44 | 35.81742 | -86.98013 | 6478 ft | 148 kts | 221° |
| 2026-05-08 03:44 | 35.80816 | -86.98608 | 6482 ft | 155 kts | 199° |
| 2026-05-08 03:44 | 35.79789 | -86.98963 | 6466 ft | 149 kts | 199° |
| 2026-05-08 03:44 | 35.78825 | -86.99328 | 6471 ft | 142 kts | 200° |
| 2026-05-08 03:45 | 35.77888 | -86.99678 | 6479 ft | 142 kts | 201° |
| 2026-05-08 03:45 | 35.76947 | -87.00055 | 6483 ft | 142 kts | 201° |
| 2026-05-08 03:45 | 35.75993 | -87.00438 | 6477 ft | 148 kts | 200° |
| 2026-05-08 03:45 | 35.75338 | -87.00681 | 6472 ft | 148 kts | 199° |
| 2026-05-08 03:46 | 35.73995 | -87.01044 | 6473 ft | 146 kts | 193° |
| 2026-05-08 03:46 | 35.73014 | -87.01262 | 6475 ft | 142 kts | 194° |
| 2026-05-08 03:46 | 35.72030 | -87.01491 | 6472 ft | 143 kts | 193° |
| 2026-05-08 03:46 | 35.71375 | -87.01629 | 6466 ft | 140 kts | 193° |
| 2026-05-08 03:47 | 35.70430 | -87.01845 | 6468 ft | 137 kts | 194° |
| 2026-05-08 03:47 | 35.69492 | -87.02051 | 6472 ft | 136 kts | 193° |
| 2026-05-08 03:47 | 35.68544 | -87.02274 | 6488 ft | 146 kts | 193° |
| 2026-05-08 03:47 | 35.67538 | -87.02501 | 6466 ft | 144 kts | 193° |
| 2026-05-08 03:48 | 35.66566 | -87.02717 | 6480 ft | 142 kts | 194° |
| 2026-05-08 03:48 | 35.65579 | -87.02939 | 6477 ft | 146 kts | 192° |
| 2026-05-08 03:48 | 35.64593 | -87.03156 | 6470 ft | 142 kts | 194° |
| 2026-05-08 03:48 | 35.63635 | -87.03381 | 6479 ft | 139 kts | 194° |
| 2026-05-08 03:49 | 35.62671 | -87.03608 | 6487 ft | 144 kts | 193° |
| 2026-05-08 03:49 | 35.61675 | -87.03835 | 6490 ft | 147 kts | 194° |
| 2026-05-08 03:49 | 35.60638 | -87.03926 | 6480 ft | 150 kts | 180° |
| 2026-05-08 03:49 | 35.59614 | -87.03881 | 6480 ft | 145 kts | 182° |
| 2026-05-08 03:50 | 35.58587 | -87.03867 | 6490 ft | 151 kts | 182° |
| 2026-05-08 03:50 | 35.57540 | -87.03845 | 6479 ft | 148 kts | 182° |
| 2026-05-08 03:50 | 35.56512 | -87.03825 | 6481 ft | 148 kts | 181° |
| 2026-05-08 03:50 | 35.55501 | -87.03797 | 6478 ft | 147 kts | 181° |
| 2026-05-08 03:51 | 35.54473 | -87.03787 | 6476 ft | 147 kts | 182° |
| 2026-05-08 03:51 | 35.53450 | -87.03769 | 6487 ft | 148 kts | 180° |
| 2026-05-08 03:51 | 35.52406 | -87.03755 | 6482 ft | 149 kts | 183° |
| 2026-05-08 03:51 | 35.51392 | -87.03740 | 6471 ft | 144 kts | 181° |
| 2026-05-08 03:52 | 35.50400 | -87.03717 | 6472 ft | 141 kts | 182° |
| 2026-05-08 03:52 | 35.49393 | -87.03715 | 6479 ft | 145 kts | 182° |
| 2026-05-08 03:52 | 35.48389 | -87.03693 | 6477 ft | 147 kts | 180° |
| 2026-05-08 03:52 | 35.47363 | -87.03664 | 6471 ft | 144 kts | 182° |
| 2026-05-08 03:53 | 35.46386 | -87.03653 | 6469 ft | 140 kts | 182° |
| 2026-05-08 03:53 | 35.45404 | -87.03648 | 6483 ft | 141 kts | 182° |
| 2026-05-08 03:53 | 35.44434 | -87.03624 | 6338 ft | 137 kts | 181° |
| 2026-05-08 03:53 | 35.43470 | -87.03596 | 6153 ft | 141 kts | 181° |
| 2026-05-08 03:54 | 35.42484 | -87.03562 | 5974 ft | 141 kts | 181° |
| 2026-05-08 03:54 | 35.41543 | -87.03535 | 5790 ft | 131 kts | 180° |
| 2026-05-08 03:54 | 35.40639 | -87.03509 | 5607 ft | 130 kts | 180° |
| 2026-05-08 03:54 | 35.39721 | -87.03477 | 5426 ft | 134 kts | 180° |
| 2026-05-08 03:55 | 35.38770 | -87.03447 | 5259 ft | 140 kts | 180° |
| 2026-05-08 03:55 | 35.37782 | -87.03409 | 5082 ft | 143 kts | 179° |
| 2026-05-08 03:55 | 35.36813 | -87.03381 | 4915 ft | 137 kts | 180° |
| 2026-05-08 03:55 | 35.35858 | -87.03358 | 4731 ft | 137 kts | 179° |
| 2026-05-08 03:56 | 35.34920 | -87.03327 | 4546 ft | 134 kts | 179° |
| 2026-05-08 03:56 | 35.33995 | -87.03300 | 4368 ft | 131 kts | 179° |
| 2026-05-08 03:56 | 35.33066 | -87.03272 | 4189 ft | 135 kts | 179° |
| 2026-05-08 03:56 | 35.32122 | -87.03246 | 4011 ft | 134 kts | 179° |
| 2026-05-08 03:57 | 35.31172 | -87.03216 | 3885 ft | 139 kts | 178° |
| 2026-05-08 03:57 | 35.30217 | -87.03180 | 3769 ft | 134 kts | 179° |
| 2026-05-08 03:57 | 35.29308 | -87.03160 | 3689 ft | 127 kts | 181° |
| 2026-05-08 03:57 | 35.28451 | -87.03191 | 3583 ft | 120 kts | 181° |
| 2026-05-08 03:58 | 35.27637 | -87.03201 | 3429 ft | 113 kts | 180° |
| 2026-05-08 03:58 | 35.26880 | -87.03212 | 3259 ft | 105 kts | 181° |
| 2026-05-08 03:58 | 35.26141 | -87.03223 | 3108 ft | 108 kts | 181° |
| 2026-05-08 03:58 | 35.25372 | -87.03242 | 2950 ft | 111 kts | 181° |
| 2026-05-08 03:59 | 35.24606 | -87.03259 | 2793 ft | 108 kts | 180° |
| 2026-05-08 03:59 | 35.23861 | -87.03273 | 2638 ft | 108 kts | 180° |
| 2026-05-08 03:59 | 35.23093 | -87.03287 | 2540 ft | 112 kts | 180° |
| 2026-05-08 03:59 | 35.22362 | -87.03550 | 2434 ft | 113 kts | 230° |
| 2026-05-08 04:00 | 35.21983 | -87.04373 | 2341 ft | 113 kts | 246° |
| 2026-05-08 04:00 | 35.21612 | -87.05235 | 2253 ft | 117 kts | 246° |
| 2026-05-08 04:00 | 35.21226 | -87.06120 | 2162 ft | 121 kts | 246° |
| 2026-05-08 04:00 | 35.20828 | -87.07047 | 2047 ft | 121 kts | 247° |
| 2026-05-08 04:01 | 35.20349 | -87.07833 | 1956 ft | 116 kts | 215° |
| 2026-05-08 04:01 | 35.19589 | -87.07986 | 1818 ft | 112 kts | 162° |
| 2026-05-08 04:01 | 35.18885 | -87.07748 | 1632 ft | 97 kts | 163° |
| 2026-05-08 04:01 | 35.18286 | -87.07483 | 1396 ft | 86 kts | 153° |
| 2026-05-08 04:02 | 35.17787 | -87.07186 | 1224 ft | 76 kts | 152° |
| 2026-05-08 04:02 | 35.17328 | -87.06897 | 1078 ft | 72 kts | 153° |
| 2026-05-08 04:02 | 35.16894 | -87.06626 | 945 ft | 67 kts | 152° |
| 2026-05-08 04:02 | 35.16482 | -87.06364 | 836 ft | 67 kts | 153° |
| 2026-05-08 04:03 | 35.16067 | -87.06109 | 736 ft | 65 kts | 153° |
| 2026-05-08 04:03 | 35.15408 | -87.05704 | 672 ft | 41 kts | 154° |
| 2026-05-08 04:03 | 35.15177 | -87.05564 | 665 ft | 34 kts | 152° |
| 2026-05-08 04:04 | 35.15015 | -87.05456 | 658 ft | 19 kts | 109° |
| 2026-05-08 04:04 | 35.15045 | -87.05336 | 655 ft | 13 kts | 106° |
| 2026-05-08 04:04 | 35.14992 | -87.05310 | 653 ft | 0 kts | 207° |